Time;durP1;ratioP1;P1;durP2;ratioP2;P2;SDS_P1;SDS_P2;PMS_P1;PMS_P2;Temp;Humidity;BMP_temperature;BMP_pressure;BME280_temperature;BME280_humidity;BME280_pressure;Samples;Min_cycle;Max_cycle;Signal;HPM_P1;HPM_P2
2021/03/19 00:01:53;;;;;;;4.65;4.05;;;4.30;93.20;;;;;;5015591;28;20076;-78
2021/03/19 00:04:18;;;;;;;7.38;4.57;;;4.30;93.30;;;;;;5013727;28;20431;-70
2021/03/19 00:06:44;;;;;;;6.60;4.95;;;4.20;93.30;;;;;;5013318;28;20052;-71
2021/03/19 00:09:11;;;;;;;5.78;4.35;;;4.20;93.40;;;;;;5014545;28;20513;-70
2021/03/19 00:11:37;;;;;;;6.55;4.03;;;4.10;93.40;;;;;;5015014;28;20045;-77
2021/03/19 00:14:04;;;;;;;10.05;5.00;;;4.10;93.50;;;;;;5013234;28;20490;-69
2021/03/19 00:16:31;;;;;;;13.35;8.48;;;4.00;93.50;;;;;;5014560;28;20022;-79
2021/03/19 00:18:56;;;;;;;6.60;4.47;;;4.00;93.50;;;;;;5015000;28;20176;-78
2021/03/19 00:21:22;;;;;;;6.85;4.65;;;3.90;93.60;;;;;;5014256;28;20510;-79
2021/03/19 00:23:48;;;;;;;12.68;11.07;;;3.90;93.60;;;;;;5013661;28;20067;-78
2021/03/19 00:26:13;;;;;;;7.00;5.15;;;3.90;93.60;;;;;;5014394;28;20022;-79
2021/03/19 00:28:39;;;;;;;6.28;5.15;;;3.80;93.60;;;;;;5013951;28;20040;-75
2021/03/19 00:31:05;;;;;;;8.45;4.43;;;3.80;93.70;;;;;;5014955;28;20132;-66
2021/03/19 00:33:30;;;;;;;6.15;4.55;;;3.80;93.70;;;;;;5014453;28;20456;-77
2021/03/19 00:35:56;;;;;;;16.88;15.32;;;3.70;93.70;;;;;;5014214;28;20026;-76
2021/03/19 00:38:21;;;;;;;17.45;14.15;;;3.70;93.80;;;;;;5012917;28;20026;-74
2021/03/19 00:40:47;;;;;;;6.82;5.05;;;3.60;93.90;;;;;;5012976;28;20034;-78
2021/03/19 00:43:14;;;;;;;6.72;4.68;;;3.60;93.90;;;;;;5012523;28;20026;-73
2021/03/19 00:45:40;;;;;;;8.32;4.80;;;3.60;93.90;;;;;;5014300;28;20022;-79
2021/03/19 00:48:06;;;;;;;4.82;4.32;;;3.50;94.00;;;;;;5013793;28;20057;-68
2021/03/19 00:50:51;;;;;;;20.98;19.10;;;3.50;94.00;;;;;;5013814;28;20069;-72
2021/03/19 00:53:16;;;;;;;7.53;5.72;;;3.40;94.10;;;;;;5013916;28;20088;-78
2021/03/19 00:55:42;;;;;;;9.30;5.30;;;3.40;94.20;;;;;;5013442;28;20474;-78
2021/03/19 00:58:07;;;;;;;10.98;9.98;;;3.40;94.20;;;;;;5013043;28;20458;-68
2021/03/19 01:00:35;;;;;;;9.25;8.18;;;3.40;94.20;;;;;;5013725;28;20102;-78
2021/03/19 01:03:02;;;;;;;13.55;12.23;;;3.30;94.30;;;;;;5012388;28;20026;-74
2021/03/19 01:05:35;;;;;;;8.52;6.22;;;3.30;94.40;;;;;;5012496;28;20544;-76
2021/03/19 01:08:03;;;;;;;24.85;22.50;;;3.30;94.40;;;;;;5012775;28;20113;-76
2021/03/19 01:10:35;;;;;;;9.80;5.88;;;3.30;94.50;;;;;;5012878;28;20022;-70
2021/03/19 01:13:01;;;;;;;12.38;6.47;;;3.20;94.40;;;;;;5012567;28;20367;-70
2021/03/19 01:15:29;;;;;;;16.77;13.63;;;3.20;94.60;;;;;;5013415;28;20037;-71
2021/03/19 01:17:54;;;;;;;14.50;11.70;;;3.20;94.60;;;;;;5013150;28;20449;-78
2021/03/19 01:20:24;;;;;;;29.00;26.13;;;3.20;94.70;;;;;;5013349;28;20048;-73
2021/03/19 01:22:50;;;;;;;15.27;13.07;;;3.10;94.80;;;;;;5013583;28;20103;-76
2021/03/19 01:25:17;;;;;;;56.97;50.17;;;3.10;94.90;;;;;;5011447;28;20021;-79
2021/03/19 01:27:44;;;;;;;17.23;12.15;;;3.00;95.00;;;;;;5013499;28;20030;-78
2021/03/19 01:30:13;;;;;;;10.27;7.97;;;3.00;95.00;;;;;;5012700;28;20061;-77
2021/03/19 01:32:41;;;;;;;15.75;14.30;;;2.90;95.10;;;;;;5013608;28;20030;-77
2021/03/19 01:35:07;;;;;;;55.83;46.75;;;2.90;95.10;;;;;;5013960;28;20028;-68
2021/03/19 01:37:33;;;;;;;50.75;45.75;;;2.90;95.20;;;;;;5011183;28;20120;-71
2021/03/19 01:39:58;;;;;;;25.70;23.17;;;2.90;95.30;;;;;;5013301;28;20037;-78
2021/03/19 01:42:24;;;;;;;15.02;8.65;;;2.90;95.40;;;;;;5011878;28;20025;-78
2021/03/19 01:45:08;;;;;;;39.35;35.97;;;2.90;95.40;;;;;;5012707;28;20449;-68
2021/03/19 01:48:11;;;;;;;16.38;12.93;;;2.90;95.40;;;;;;5013315;28;20026;-77
2021/03/19 01:51:14;;;;;;;15.32;12.13;;;2.90;95.40;;;;;;5013214;28;20133;-71
2021/03/19 01:54:17;;;;;;;12.05;10.85;;;2.90;95.50;;;;;;5012224;28;20029;-78
2021/03/19 01:57:20;;;;;;;13.55;12.18;;;2.80;95.30;;;;;;5013778;28;20477;-76
2021/03/19 02:00:23;;;;;;;41.95;37.92;;;2.80;95.30;;;;;;5012285;28;20058;-74
2021/03/19 02:03:26;;;;;;;12.00;10.77;;;2.80;95.30;;;;;;5013005;28;20014;-77
2021/03/19 02:06:29;;;;;;;21.70;19.63;;;2.80;95.40;;;;;;5012294;28;20026;-73
2021/03/19 02:09:32;;;;;;;19.02;15.07;;;2.70;95.50;;;;;;5011161;28;20462;-75
2021/03/19 02:12:35;;;;;;;18.33;16.55;;;2.70;95.50;;;;;;5012879;28;20030;-71
2021/03/19 02:15:38;;;;;;;21.85;18.67;;;2.70;95.70;;;;;;5011615;28;20131;-73
2021/03/19 02:18:41;;;;;;;38.35;34.53;;;2.60;95.60;;;;;;5012771;28;20088;-70
2021/03/19 02:21:44;;;;;;;14.52;12.57;;;2.60;95.60;;;;;;5012222;28;20028;-76
2021/03/19 02:24:47;;;;;;;13.15;11.75;;;2.50;95.70;;;;;;5012350;28;20417;-76
2021/03/19 02:27:50;;;;;;;24.15;20.85;;;2.50;95.80;;;;;;5012397;28;20490;-77
2021/03/19 02:30:53;;;;;;;23.13;21.00;;;2.40;95.70;;;;;;5012222;28;20060;-78
2021/03/19 02:33:19;;;;;;;25.05;22.33;;;2.40;95.70;;;;;;5011792;28;20026;-71
2021/03/19 02:35:54;;;;;;;13.82;10.38;;;2.40;95.90;;;;;;5012611;28;20144;-77
2021/03/19 02:38:20;;;;;;;14.55;13.10;;;2.40;95.90;;;;;;5012274;28;20037;-67
2021/03/19 02:40:46;;;;;;;21.92;19.75;;;2.40;96.00;;;;;;5012054;28;20018;-73
2021/03/19 02:43:12;;;;;;;14.75;13.02;;;2.40;96.00;;;;;;5012821;28;20473;-77
2021/03/19 02:45:37;;;;;;;14.48;12.98;;;2.40;96.00;;;;;;5012009;28;20355;-72
2021/03/19 02:48:03;;;;;;;41.03;37.00;;;2.40;96.00;;;;;;5012340;28;20209;-78
2021/03/19 02:50:29;;;;;;;11.30;10.13;;;2.30;96.00;;;;;;5011797;28;20123;-78
2021/03/19 02:52:54;;;;;;;26.13;21.50;;;2.30;96.00;;;;;;5010423;28;20120;-79
2021/03/19 02:55:20;;;;;;;38.75;32.22;;;2.30;96.00;;;;;;5012200;28;20036;-74
2021/03/19 02:57:45;;;;;;;24.48;22.23;;;2.30;96.40;;;;;;5012476;28;20042;-77
2021/03/19 03:00:16;;;;;;;14.60;11.98;;;2.30;96.00;;;;;;5010370;28;20386;-73
2021/03/19 03:02:42;;;;;;;13.35;11.60;;;2.20;96.00;;;;;;5012728;28;20080;-79
2021/03/19 03:05:08;;;;;;;13.68;11.65;;;2.30;96.00;;;;;;5011432;28;20026;-70
2021/03/19 03:07:33;;;;;;;22.60;20.48;;;2.20;96.00;;;;;;5011422;28;20030;-79
2021/03/19 03:10:00;;;;;;;40.92;36.78;;;2.20;96.00;;;;;;5011935;28;20623;-71
2021/03/19 03:12:28;;;;;;;13.88;11.00;;;2.20;96.10;;;;;;5012161;28;20022;-71
2021/03/19 03:14:53;;;;;;;24.58;22.45;;;2.10;96.00;;;;;;5011467;28;20084;-78
2021/03/19 03:17:19;;;;;;;23.65;21.42;;;2.10;96.10;;;;;;5011869;28;20105;-79
2021/03/19 03:19:45;;;;;;;24.90;22.40;;;2.10;96.30;;;;;;5011871;28;20038;-78
2021/03/19 03:22:10;;;;;;;27.60;20.83;;;2.10;96.10;;;;;;5015085;28;20029;-77
2021/03/19 03:24:36;;;;;;;16.25;14.38;;;2.10;96.10;;;;;;5015843;28;20037;-75
2021/03/19 03:27:02;;;;;;;29.60;26.70;;;2.00;96.10;;;;;;5015948;28;20029;-73
2021/03/19 03:29:28;;;;;;;14.50;12.98;;;2.00;96.10;;;;;;5014694;28;20033;-75
2021/03/19 03:31:55;;;;;;;51.70;46.75;;;2.00;96.20;;;;;;5016158;28;20556;-79
2021/03/19 03:34:22;;;;;;;13.05;10.43;;;2.00;96.20;;;;;;5014159;28;20026;-75
2021/03/19 03:36:48;;;;;;;87.07;78.50;;;2.00;96.10;;;;;;5013904;28;20022;-67
2021/03/19 03:39:19;;;;;;;34.50;12.70;;;1.90;96.10;;;;;;5013904;28;20092;-77
2021/03/19 03:41:45;;;;;;;11.48;10.15;;;1.90;96.10;;;;;;5014692;28;20026;-74
2021/03/19 03:44:13;;;;;;;15.90;14.35;;;1.90;96.10;;;;;;5015201;28;20076;-79
2021/03/19 03:46:40;;;;;;;14.77;10.27;;;1.80;96.10;;;;;;5014365;28;20026;-78
2021/03/19 03:49:05;;;;;;;39.25;35.13;;;1.80;96.10;;;;;;5015010;28;20049;-76
2021/03/19 03:51:31;;;;;;;66.15;59.67;;;1.80;96.10;;;;;;5015121;28;20565;-79
2021/03/19 03:53:58;;;;;;;34.45;31.50;;;1.80;96.10;;;;;;5015873;28;20065;-72
2021/03/19 03:56:25;;;;;;;33.75;27.60;;;1.80;96.10;;;;;;5014460;28;20112;-75
2021/03/19 03:58:51;;;;;;;18.38;15.95;;;1.80;96.20;;;;;;5015123;28;20069;-74
2021/03/19 04:01:17;;;;;;;21.17;19.20;;;1.80;96.20;;;;;;5014994;28;20068;-70
2021/03/19 04:03:42;;;;;;;55.58;50.40;;;1.80;96.10;;;;;;5013209;28;20448;-77
2021/03/19 04:06:08;;;;;;;37.92;34.17;;;1.80;96.10;;;;;;5015356;28;20101;-74
2021/03/19 04:08:34;;;;;;;27.25;24.38;;;1.80;96.10;;;;;;5013666;28;20022;-72
2021/03/19 04:11:03;;;;;;;48.42;45.03;;;1.70;96.10;;;;;;5014442;28;20378;-67
2021/03/19 04:13:30;;;;;;;33.05;29.50;;;1.70;96.10;;;;;;5013330;28;20470;-74
2021/03/19 04:15:58;;;;;;;43.13;38.90;;;1.70;96.10;;;;;;5014808;28;20482;-71
2021/03/19 04:18:25;;;;;;;15.55;11.82;;;1.70;96.00;;;;;;5012375;28;20112;-73
2021/03/19 04:20:53;;;;;;;46.35;39.78;;;1.70;96.00;;;;;;5015114;28;20029;-76
2021/03/19 04:23:19;;;;;;;12.43;10.23;;;1.60;96.00;;;;;;5014793;28;20075;-76
2021/03/19 04:25:44;;;;;;;28.02;25.60;;;1.60;96.00;;;;;;5014314;28;20477;-75
2021/03/19 04:28:14;;;;;;;25.85;23.65;;;1.60;96.00;;;;;;5014622;28;20026;-76
2021/03/19 04:30:42;;;;;;;36.88;33.75;;;1.60;96.00;;;;;;5014851;28;20050;-75
2021/03/19 04:33:14;;;;;;;12.45;11.15;;;1.60;96.00;;;;;;5014047;28;20025;-70
2021/03/19 04:35:40;;;;;;;28.58;25.67;;;1.60;95.90;;;;;;5014560;28;20036;-68
2021/03/19 04:38:09;;;;;;;37.70;34.45;;;1.60;95.90;;;;;;5014559;28;20034;-73
2021/03/19 04:40:36;;;;;;;48.72;44.35;;;1.60;95.90;;;;;;5013625;28;20355;-77
2021/03/19 04:43:03;;;;;;;40.15;36.28;;;1.60;95.90;;;;;;5013221;28;20032;-76
2021/03/19 04:45:29;;;;;;;17.08;15.38;;;1.60;95.80;;;;;;5012465;28;20405;-73
2021/03/19 04:47:55;;;;;;;36.63;32.80;;;1.60;95.80;;;;;;5014454;28;20037;-78
2021/03/19 04:50:24;;;;;;;86.57;79.03;;;1.60;95.80;;;;;;5013979;28;20050;-78
2021/03/19 04:52:50;;;;;;;14.13;12.20;;;1.50;95.70;;;;;;5013579;28;20108;-77
2021/03/19 04:55:16;;;;;;;18.55;16.58;;;1.50;95.70;;;;;;5014038;28;20029;-74
2021/03/19 04:57:42;;;;;;;36.72;33.75;;;1.50;95.80;;;;;;5013941;28;20033;-77
2021/03/19 05:00:11;;;;;;;33.00;30.13;;;1.50;95.90;;;;;;5012217;28;20025;-69
2021/03/19 05:02:45;;;;;;;94.53;86.18;;;1.50;95.90;;;;;;5012949;28;20052;-72
2021/03/19 05:05:22;;;;;;;24.38;22.17;;;1.50;95.90;;;;;;5012492;28;20049;-76
2021/03/19 05:07:48;;;;;;;26.15;22.92;;;1.50;95.90;;;;;;5013397;28;20022;-77
2021/03/19 05:10:17;;;;;;;21.17;18.80;;;1.50;95.90;;;;;;5013582;28;20022;-77
2021/03/19 05:12:42;;;;;;;35.65;32.85;;;1.50;95.90;;;;;;5012431;28;20018;-74
2021/03/19 05:15:09;;;;;;;14.32;12.68;;;1.50;95.90;;;;;;5013473;28;20386;-72
2021/03/19 05:17:34;;;;;;;46.75;42.25;;;1.40;95.80;;;;;;5013783;28;20097;-77
2021/03/19 05:20:02;;;;;;;29.55;27.27;;;1.40;95.90;;;;;;5013741;28;20491;-77
2021/03/19 05:22:28;;;;;;;17.27;15.73;;;1.40;95.80;;;;;;5012686;28;20033;-75
2021/03/19 05:24:53;;;;;;;12.25;9.77;;;1.40;95.80;;;;;;5012524;28;20390;-71
2021/03/19 05:27:19;;;;;;;26.35;19.92;;;1.40;95.80;;;;;;5013367;28;20028;-77
2021/03/19 05:29:45;;;;;;;23.95;21.88;;;1.40;95.80;;;;;;5011557;28;20033;-76
2021/03/19 05:32:11;;;;;;;26.70;24.13;;;1.30;95.80;;;;;;5013438;28;20030;-80
2021/03/19 05:34:36;;;;;;;30.13;27.42;;;1.40;96.00;;;;;;5012870;28;20038;-78
2021/03/19 05:37:02;;;;;;;69.95;64.38;;;1.40;95.80;;;;;;5013492;28;20108;-77
2021/03/19 05:39:28;;;;;;;14.85;11.43;;;1.30;95.70;;;;;;5013005;28;20034;-77
2021/03/19 05:41:54;;;;;;;63.83;58.25;;;1.40;95.60;;;;;;5012985;28;20018;-78
2021/03/19 05:44:22;;;;;;;34.72;31.77;;;1.40;95.60;;;;;;5012431;28;20390;-70
2021/03/19 05:47:10;;;;;;;68.38;57.97;;;1.40;95.50;;;;;;5013074;28;20561;-67
2021/03/19 05:49:35;;;;;;;45.67;41.30;;;1.40;95.80;;;;;;5011643;28;20057;-70
2021/03/19 05:52:17;;;;;;;40.47;37.50;;;1.40;95.40;;;;;;5013419;28;20030;-69
2021/03/19 05:54:44;;;;;;;64.97;59.17;;;1.40;95.30;;;;;;5012162;28;20029;-67
2021/03/19 05:57:28;;;;;;;54.30;49.85;;;1.40;95.30;;;;;;5022774;28;20065;-69
2021/03/19 05:59:57;;;;;;;16.65;15.02;;;1.40;95.30;;;;;;5012820;28;20038;-66
2021/03/19 06:02:28;;;;;;;33.53;29.70;;;1.50;95.30;;;;;;5012569;28;20525;-72
2021/03/19 06:05:16;;;;;;;12.52;11.35;;;1.50;95.40;;;;;;5011125;28;20447;-75
2021/03/19 06:07:56;;;;;;;16.52;15.00;;;1.50;95.30;;;;;;5012765;28;20025;-75
2021/03/19 06:10:25;;;;;;;22.15;20.38;;;1.60;95.30;;;;;;5011667;28;20018;-76
2021/03/19 06:12:57;;;;;;;27.30;24.50;;;1.60;95.20;;;;;;5012973;28;20037;-74
2021/03/19 06:15:27;;;;;;;17.17;15.48;;;1.60;95.20;;;;;;5012409;28;20026;-72
2021/03/19 06:17:54;;;;;;;25.58;23.08;;;1.70;95.20;;;;;;5012107;28;20149;-72
2021/03/19 06:20:22;;;;;;;11.95;9.95;;;1.70;95.20;;;;;;5012295;28;20478;-72
2021/03/19 06:23:25;;;;;;;73.43;14.57;;;1.80;95.20;;;;;;5012600;28;20033;-67
2021/03/19 06:26:01;;;;;;;32.97;29.60;;;1.80;95.20;;;;;;5009523;28;20482;-69
2021/03/19 06:28:27;;;;;;;15.20;12.23;;;1.90;95.00;;;;;;5011760;28;20517;-67
2021/03/19 06:31:15;;;;;;;42.63;38.63;;;1.90;95.00;;;;;;5011918;28;20029;-71
2021/03/19 06:33:41;;;;;;;15.10;7.80;;;2.00;94.90;;;;;;5012397;28;20459;-69
2021/03/19 06:36:15;;;;;;;13.23;11.55;;;2.00;95.00;;;;;;5012614;28;20033;-66
2021/03/19 06:38:42;;;;;;;35.05;25.90;;;2.00;94.90;;;;;;5011296;28;20030;-74
2021/03/19 06:41:19;;;;;;;57.83;52.08;;;2.10;94.90;;;;;;5012549;28;20441;-66
2021/03/19 06:43:45;;;;;;;17.23;11.02;;;2.10;94.80;;;;;;5012270;28;20378;-71
2021/03/19 06:46:28;;;;;;;18.00;11.57;;;2.20;94.80;;;;;;5011162;28;20022;-73
2021/03/19 06:48:54;;;;;;;26.65;23.90;;;2.20;94.70;;;;;;5010634;28;20029;-73
2021/03/19 06:51:38;;;;;;;29.45;26.83;;;2.30;94.70;;;;;;5010475;28;20445;-67
2021/03/19 06:54:06;;;;;;;14.93;8.63;;;2.40;94.40;;;;;;5010303;28;20486;-65
2021/03/19 06:56:32;;;;;;;19.45;17.42;;;2.50;94.40;;;;;;5010841;28;20140;-74
2021/03/19 06:58:58;;;;;;;9.13;6.68;;;2.50;94.40;;;;;;5012290;28;20120;-73
2021/03/19 07:01:24;;;;;;;11.32;6.88;;;2.60;94.10;;;;;;5027327;28;20025;-67
2021/03/19 07:03:58;;;;;;;9.15;5.93;;;2.70;94.10;;;;;;5012739;28;20029;-72
2021/03/19 07:06:42;;;;;;;11.85;5.80;;;2.70;94.00;;;;;;5015763;28;20025;-69
2021/03/19 07:09:31;;;;;;;18.23;14.85;;;2.80;93.60;;;;;;5010932;28;20058;-67
2021/03/19 07:12:36;;;;;;;21.70;18.05;;;2.90;93.30;;;;;;5012165;28;20033;-70
2021/03/19 07:15:02;;;;;;;10.07;8.52;;;2.90;93.10;;;;;;4976909;28;20055;-72
2021/03/19 07:17:49;;;;;;;16.23;10.23;;;3.00;93.00;;;;;;5001221;28;20525;-71
2021/03/19 07:20:40;;;;;;;7.82;5.32;;;3.10;92.90;;;;;;5024348;28;20048;-74
2021/03/19 07:23:19;;;;;;;17.98;11.50;;;3.10;92.70;;;;;;5030513;28;20512;-71
2021/03/19 07:25:57;;;;;;;13.93;8.80;;;3.10;92.60;;;;;;5000407;28;20022;-68
2021/03/19 07:28:51;;;;;;;10.48;5.75;;;3.20;92.50;;;;;;5029453;28;20037;-69
2021/03/19 07:31:56;;;;;;;9.68;4.70;;;3.40;92.10;;;;;;4992086;28;20045;-67
2021/03/19 07:34:46;;;;;;;13.55;8.55;;;3.50;92.00;;;;;;5024611;28;20052;-72
2021/03/19 07:37:57;;;;;;;9.02;5.07;;;3.50;91.90;;;;;;5003728;28;20037;-73
2021/03/19 07:40:35;;;;;;;8.65;4.60;;;3.60;91.70;;;;;;5010946;28;20120;-74
2021/03/19 07:43:08;;;;;;;6.00;4.07;;;3.70;91.40;;;;;;5030377;28;20032;-71
2021/03/19 07:45:50;;;;;;;5.78;3.97;;;3.80;91.10;;;;;;5029466;28;20084;-72
2021/03/19 07:48:31;;;;;;;16.85;15.40;;;3.90;91.10;;;;;;5026003;28;20462;-69
2021/03/19 07:51:33;;;;;;;9.15;3.80;;;4.00;90.70;;;;;;5011034;28;20510;-73
2021/03/19 07:54:26;;;;;;;6.70;3.75;;;4.10;90.40;;;;;;4976721;28;20133;-67
2021/03/19 07:56:57;;;;;;;;;;;4.20;90.40;;;;;;4990491;28;20023;-68
2021/03/19 07:59:28;;;;;;;4.80;3.53;;;4.30;90.20;;;;;;4989985;28;19913;-68
2021/03/19 08:02:00;;;;;;;6.85;3.17;;;4.40;89.00;;;;;;5010715;28;20026;-65
2021/03/19 08:04:37;;;;;;;4.85;3.15;;;4.50;89.00;;;;;;5010358;28;20030;-69
2021/03/19 08:07:23;;;;;;;4.57;2.95;;;4.60;89.00;;;;;;5012027;28;20482;-69
2021/03/19 08:10:00;;;;;;;7.60;2.80;;;4.70;87.70;;;;;;5025570;28;20033;-68
2021/03/19 08:12:48;;;;;;;11.43;8.27;;;4.80;86.40;;;;;;5027622;28;20036;-67
2021/03/19 08:15:34;;;;;;;6.03;2.97;;;4.80;85.70;;;;;;5013124;28;20021;-69
2021/03/19 08:18:15;;;;;;;6.13;2.80;;;4.90;86.00;;;;;;5014172;28;20125;-68
2021/03/19 08:21:07;;;;;;;4.70;2.60;;;5.00;85.60;;;;;;5027370;28;20044;-67
2021/03/19 08:23:49;;;;;;;5.95;2.80;;;5.10;85.50;;;;;;5033141;28;20132;-68
2021/03/19 08:26:23;;;;;;;6.25;2.78;;;5.20;85.40;;;;;;4994767;28;20037;-69
2021/03/19 08:29:21;;;;;;;5.47;2.55;;;5.30;85.20;;;;;;4994992;28;20030;-70
2021/03/19 08:32:03;;;;;;;4.97;2.72;;;5.40;84.20;;;;;;4994403;28;20022;-68
2021/03/19 08:34:57;;;;;;;3.28;2.78;;;5.50;82.70;;;;;;4994196;28;20050;-67
2021/03/19 08:37:27;;;;;;;3.45;2.42;;;5.50;82.60;;;;;;4985409;28;20038;-74
2021/03/19 08:39:54;;;;;;;3.58;2.25;;;5.60;81.90;;;;;;4994515;28;20129;-78
2021/03/19 08:42:29;;;;;;;6.00;2.70;;;5.70;81.60;;;;;;5027732;28;20049;-73
2021/03/19 08:44:54;;;;;;;2.60;1.80;;;5.70;81.10;;;;;;5013536;28;20441;-76
2021/03/19 08:47:26;;;;;;;4.13;2.97;;;5.70;79.80;;;;;;5013986;28;20018;-76
2021/03/19 08:49:55;;;;;;;4.28;1.98;;;5.70;79.00;;;;;;5014724;28;20098;-74
2021/03/19 08:52:26;;;;;;;7.03;4.20;;;5.80;78.50;;;;;;5013438;28;20033;-70
2021/03/19 08:55:21;;;;;;;4.38;2.67;;;5.90;77.90;;;;;;5013080;28;20033;-77
2021/03/19 08:57:53;;;;;;;5.47;2.40;;;5.90;77.50;;;;;;5011370;28;20453;-79
2021/03/19 09:00:25;;;;;;;;;;;6.00;76.40;;;;;;5015534;28;20030;-72
2021/03/19 09:02:59;;;;;;;3.40;2.13;;;6.10;74.70;;;;;;5014891;28;19915;-74
2021/03/19 09:05:37;;;;;;;3.85;2.75;;;6.10;74.70;;;;;;5021314;28;20536;-70
2021/03/19 09:08:24;;;;;;;3.22;2.13;;;6.10;74.60;;;;;;5025416;28;20061;-78
2021/03/19 09:10:53;;;;;;;5.43;2.63;;;6.10;74.30;;;;;;5033523;28;20029;-74
2021/03/19 09:13:21;;;;;;;5.60;2.55;;;6.20;75.30;;;;;;5030704;28;20021;-77
2021/03/19 09:15:50;;;;;;;3.75;2.95;;;6.30;75.60;;;;;;5033717;28;20029;-79
2021/03/19 09:18:41;;;;;;;5.75;3.00;;;6.30;74.30;;;;;;5023480;28;20045;-88
2021/03/19 09:21:29;;;;;;;7.47;6.72;;;6.30;74.50;;;;;;5021895;28;20104;-71
2021/03/19 09:24:01;;;;;;;4.15;2.75;;;6.40;75.00;;;;;;5014386;28;20076;-86
2021/03/19 09:26:29;;;;;;;4.28;2.63;;;6.40;74.60;;;;;;5014605;28;20556;-69
2021/03/19 09:29:03;;;;;;;6.05;3.00;;;6.30;73.30;;;;;;5030802;28;20067;-73
2021/03/19 09:31:29;;;;;;;5.80;3.10;;;6.40;74.20;;;;;;5033130;28;20089;-75
2021/03/19 09:34:02;;;;;;;4.70;3.08;;;6.50;73.90;;;;;;5032588;28;20100;-71
2021/03/19 09:37:04;;;;;;;6.90;4.03;;;6.50;73.20;;;;;;5032737;28;20029;-70
2021/03/19 09:39:51;;;;;;;6.40;3.33;;;6.60;73.60;;;;;;5031254;28;20038;-73
2021/03/19 09:42:20;;;;;;;4.78;2.90;;;6.70;73.70;;;;;;5032217;28;20025;-75
2021/03/19 09:45:01;;;;;;;5.70;3.03;;;6.70;71.40;;;;;;5032947;28;20079;-74
2021/03/19 09:47:30;;;;;;;5.15;3.15;;;6.70;71.50;;;;;;5032485;28;20640;-71
2021/03/19 09:50:16;;;;;;;3.72;3.08;;;6.70;71.10;;;;;;5032003;28;20436;-75
2021/03/19 09:53:22;;;;;;;7.55;3.08;;;6.70;71.60;;;;;;5031667;28;20021;-75
2021/03/19 09:55:54;;;;;;;4.85;3.17;;;6.80;72.20;;;;;;5032200;28;20033;-72
2021/03/19 09:58:25;;;;;;;;;;;6.90;72.70;;;;;;5032689;28;20056;-67
2021/03/19 10:01:04;;;;;;;4.18;2.40;;;7.00;70.90;;;;;;5032722;28;19912;-75
2021/03/19 10:03:48;;;;;;;4.05;2.80;;;7.10;68.60;;;;;;5031579;28;20425;-71
2021/03/19 10:06:31;;;;;;;3.88;3.03;;;7.20;68.40;;;;;;5031135;28;20102;-75
2021/03/19 10:09:06;;;;;;;7.57;3.53;;;7.20;69.00;;;;;;5031970;28;20508;-75
2021/03/19 10:11:32;;;;;;;7.10;3.55;;;7.40;68.90;;;;;;5032251;28;20026;-72
2021/03/19 10:14:23;;;;;;;5.30;3.17;;;7.50;68.40;;;;;;5031224;28;20025;-72
2021/03/19 10:16:49;;;;;;;9.23;4.53;;;7.60;68.40;;;;;;5031687;28;20111;-74
2021/03/19 10:19:19;;;;;;;6.00;3.85;;;7.50;67.80;;;;;;5032086;28;20508;-75
2021/03/19 10:21:48;;;;;;;5.18;3.45;;;7.40;68.70;;;;;;5032581;28;20026;-76
2021/03/19 10:24:14;;;;;;;4.97;3.33;;;7.50;69.00;;;;;;5031300;28;20378;-72
2021/03/19 10:27:01;;;;;;;7.47;3.83;;;7.50;67.60;;;;;;5030688;28;20485;-75
2021/03/19 10:29:34;;;;;;;5.80;4.13;;;7.60;68.40;;;;;;5031573;28;20079;-71
2021/03/19 10:32:03;;;;;;;9.80;4.38;;;7.70;67.50;;;;;;5031560;28;20350;-74
2021/03/19 10:34:39;;;;;;;6.80;3.95;;;7.70;67.20;;;;;;5031706;28;20489;-72
2021/03/19 10:37:04;;;;;;;8.10;4.00;;;7.60;67.80;;;;;;5031557;28;20021;-71
2021/03/19 10:39:45;;;;;;;7.50;4.50;;;7.60;68.90;;;;;;5031532;28;20052;-73
2021/03/19 10:42:25;;;;;;;5.53;3.45;;;7.70;66.80;;;;;;5031883;28;20014;-74
2021/03/19 10:45:08;;;;;;;6.07;3.40;;;7.60;66.80;;;;;;5031327;28;20029;-72
2021/03/19 10:47:45;;;;;;;5.25;3.38;;;7.70;67.20;;;;;;5031923;28;20017;-68
2021/03/19 10:50:17;;;;;;;5.40;3.42;;;7.80;67.40;;;;;;5031320;28;20045;-74
2021/03/19 10:52:54;;;;;;;4.65;3.47;;;7.90;66.40;;;;;;5030003;28;20079;-75
2021/03/19 10:55:33;;;;;;;5.35;3.70;;;7.80;65.20;;;;;;5031639;28;20047;-68
2021/03/19 10:58:30;;;;;;;9.25;3.33;;;7.80;66.10;;;;;;5030064;28;20021;-70
2021/03/19 11:00:55;;;;;;;8.00;4.88;;;7.80;65.60;;;;;;5032019;28;20492;-69
2021/03/19 11:03:38;;;;;;;8.48;3.60;;;7.80;65.60;;;;;;5031656;28;20025;-75
2021/03/19 11:06:08;;;;;;;6.78;3.40;;;7.80;66.30;;;;;;5031450;28;20493;-74
2021/03/19 11:08:34;;;;;;;4.78;2.90;;;7.90;66.70;;;;;;5031676;28;20025;-74
2021/03/19 11:10:59;;;;;;;7.93;3.10;;;8.00;67.10;;;;;;5031905;28;20113;-67
2021/03/19 11:13:31;;;;;;;7.38;3.67;;;8.00;66.10;;;;;;5030817;28;20097;-73
2021/03/19 11:16:03;;;;;;;5.97;3.35;;;8.00;65.80;;;;;;5031918;28;20037;-76
2021/03/19 11:18:38;;;;;;;7.32;3.03;;;8.00;66.00;;;;;;5031146;28;20513;-74
2021/03/19 11:21:07;;;;;;;6.30;3.45;;;8.00;66.10;;;;;;5031024;28;20068;-76
2021/03/19 11:23:46;;;;;;;5.78;3.53;;;8.00;65.50;;;;;;5031268;28;20033;-75
2021/03/19 11:26:19;;;;;;;4.75;2.60;;;8.10;65.60;;;;;;5030652;28;20051;-67
2021/03/19 11:28:47;;;;;;;4.53;2.90;;;8.10;65.90;;;;;;5031658;28;20025;-75
2021/03/19 11:31:14;;;;;;;4.13;2.90;;;8.20;64.70;;;;;;5031344;28;20057;-75
2021/03/19 11:33:53;;;;;;;6.88;3.03;;;8.20;64.00;;;;;;5030793;28;20029;-70
2021/03/19 11:36:19;;;;;;;5.15;3.75;;;8.20;65.00;;;;;;5031226;28;20095;-77
2021/03/19 11:38:44;;;;;;;5.88;2.88;;;8.30;63.90;;;;;;5015523;28;20470;-72
2021/03/19 11:41:31;;;;;;;4.40;2.55;;;8.30;63.80;;;;;;5011459;28;20390;-71
2021/03/19 11:43:58;;;;;;;4.53;2.85;;;8.30;62.20;;;;;;5014231;28;20501;-70
2021/03/19 11:46:25;;;;;;;4.03;2.40;;;8.30;62.90;;;;;;5015083;28;20037;-77
2021/03/19 11:48:51;;;;;;;5.00;2.60;;;8.30;60.60;;;;;;5030145;28;20029;-79
2021/03/19 11:51:31;;;;;;;5.40;2.85;;;8.40;60.70;;;;;;5034686;28;20057;-74
2021/03/19 11:54:02;;;;;;;2.90;2.22;;;8.40;60.70;;;;;;5020076;28;20069;-73
2021/03/19 11:56:30;;;;;;;3.93;2.60;;;8.40;59.50;;;;;;5012968;28;20485;-73
2021/03/19 11:58:57;;;;;;;5.68;2.53;;;8.50;60.70;;;;;;5014793;28;20780;-70
2021/03/19 12:01:23;;;;;;;3.75;2.67;;;8.50;60.20;;;;;;5014180;28;20485;-69
2021/03/19 12:03:54;;;;;;;2.35;1.95;;;8.50;60.60;;;;;;5014227;28;20057;-69
2021/03/19 12:06:29;;;;;;;3.35;1.70;;;8.60;57.30;;;;;;5014838;28;20402;-69
2021/03/19 12:08:55;;;;;;;3.78;2.78;;;8.60;54.70;;;;;;5014497;28;20482;-71
2021/03/19 12:11:28;;;;;;;2.65;1.90;;;8.60;55.30;;;;;;5014534;28;20033;-71
2021/03/19 12:13:55;;;;;;;4.57;1.80;;;8.70;56.20;;;;;;5008146;28;20390;-71
2021/03/19 12:16:22;;;;;;;2.38;1.77;;;8.80;56.10;;;;;;5006187;28;20030;-74
2021/03/19 12:18:48;;;;;;;2.80;1.33;;;8.90;54.70;;;;;;5007128;28;20041;-70
2021/03/19 12:21:14;;;;;;;3.53;1.98;;;9.00;54.80;;;;;;5024045;28;20018;-70
2021/03/19 12:23:40;;;;;;;3.05;2.10;;;9.10;55.20;;;;;;5023185;28;20018;-72
2021/03/19 12:26:05;;;;;;;2.92;2.30;;;9.20;55.40;;;;;;5013661;28;20475;-71
2021/03/19 12:28:31;;;;;;;3.95;1.95;;;9.10;54.80;;;;;;5013074;28;20030;-69
2021/03/19 12:30:58;;;;;;;2.17;1.98;;;9.00;55.00;;;;;;5013416;28;20037;-72
2021/03/19 12:33:28;;;;;;;1.95;1.55;;;9.00;54.60;;;;;;5020574;28;20022;-71
2021/03/19 12:35:54;;;;;;;5.53;2.25;;;9.10;53.30;;;;;;5033208;28;20057;-72
2021/03/19 12:38:20;;;;;;;1.92;1.73;;;9.10;52.80;;;;;;5016134;28;20513;-70
2021/03/19 12:40:46;;;;;;;3.65;2.08;;;9.00;54.20;;;;;;5013135;28;20017;-70
2021/03/19 12:43:13;;;;;;;3.03;2.00;;;8.90;53.50;;;;;;5013832;28;20108;-71
2021/03/19 12:45:38;;;;;;;2.28;1.75;;;9.00;54.90;;;;;;5011936;28;20022;-70
2021/03/19 12:48:05;;;;;;;2.72;2.13;;;8.90;54.50;;;;;;5031554;28;20029;-73
2021/03/19 12:50:32;;;;;;;2.92;2.03;;;8.90;54.70;;;;;;5031033;28;20464;-69
2021/03/19 12:52:59;;;;;;;3.65;1.92;;;8.90;54.70;;;;;;5033845;28;20034;-68
2021/03/19 12:55:26;;;;;;;2.08;1.75;;;8.90;54.70;;;;;;5031273;28;20474;-73
2021/03/19 12:57:52;;;;;;;1.77;1.67;;;9.00;54.30;;;;;;5017488;28;20571;-77
2021/03/19 13:00:25;;;;;;;2.20;1.45;;;9.00;52.20;;;;;;5013898;28;20029;-76
2021/03/19 13:02:51;;;;;;;3.78;1.50;;;9.00;52.50;;;;;;5013850;28;20022;-70
2021/03/19 13:05:20;;;;;;;1.63;1.30;;;9.10;52.60;;;;;;5013099;28;20035;-69
2021/03/19 13:07:45;;;;;;;2.28;1.50;;;9.10;52.00;;;;;;5014055;28;20030;-80
2021/03/19 13:10:12;;;;;;;1.73;1.30;;;9.20;52.30;;;;;;5013788;28;20364;-77
2021/03/19 13:12:37;;;;;;;2.35;1.70;;;9.20;52.30;;;;;;5013390;28;20106;-71
2021/03/19 13:15:06;;;;;;;5.50;2.85;;;9.40;53.30;;;;;;5014089;28;20108;-80
2021/03/19 13:17:32;;;;;;;2.58;1.35;;;9.50;51.10;;;;;;5012179;28;20034;-78
2021/03/19 13:19:57;;;;;;;3.08;1.45;;;9.50;51.50;;;;;;5013151;28;20120;-80